Terminal Aerodrome Forecast
Issued by NWS Newport/Morehead City, NC

Current Version | Previous Version | Text Only | Print | Product List | Glossary On
Versions: 1 2 3 4 5 6 7 8 9 10 11 12 13 14 15
733
FTUS42 KMHX 230528
TAFEWN
TAF
KEWN 230528Z 2306/2406 VRB03KT 6SM -SHRA SCT008 OVC080
     FM231200 17005KT 6SM -SHRA SCT008 OVC030
     FM231500 17005KT 6SM -SHRA OVC015
     FM231600 18010KT 6SM -SHRA OVC030
     FM231700 19010KT 6SM -SHRA OVC040
     FM232200 21010KT 6SM -SHRA OVC030
     FM240000 22010KT 6SM -SHRA OVC015
     FM240400 22005KT 6SM -SHRA OVC007=

USA.gov is the U.S. government's official web portal to all federal, state and local government web resources and services.